createdAt,value
2023-10-18T00:00:24.809Z,40.67
2023-10-18T00:02:53.563Z,38.88
2023-10-18T00:05:22.585Z,40.08
2023-10-18T00:07:51.090Z,40.63
2023-10-18T00:10:19.129Z,36.97
2023-10-18T00:12:46.749Z,37.85
2023-10-18T00:15:13.887Z,36.30
2023-10-18T00:17:41.110Z,35.75
2023-10-18T00:20:18.022Z,40.78
2023-10-18T00:22:45.565Z,40.72
2023-10-18T00:25:13.171Z,38.92
2023-10-18T00:27:42.532Z,40.90
2023-10-18T00:30:13.020Z,37.90
2023-10-18T00:32:42.839Z,43.75
2023-10-18T00:35:25.805Z,38.30
2023-10-18T00:37:59.526Z,38.67
2023-10-18T00:40:29.719Z,43.80
2023-10-18T00:43:06.104Z,40.75
2023-10-18T00:45:37.790Z,41.10
2023-10-18T00:48:07.361Z,39.15
2023-10-18T00:50:43.334Z,41.90
2023-10-18T00:53:11.759Z,41.83
2023-10-18T00:55:38.959Z,40.05
2023-10-18T00:58:09.965Z,37.38
2023-10-18T01:00:41.485Z,35.78
2023-10-18T01:03:11.362Z,39.65
2023-10-18T01:05:59.091Z,40.72
2023-10-18T01:08:25.977Z,34.63
2023-10-18T01:10:52.832Z,36.40
2023-10-18T01:13:23.350Z,42.22
2023-10-18T01:15:51.248Z,39.78
2023-10-18T01:18:19.432Z,34.75
2023-10-18T01:20:47.615Z,36.03
2023-10-18T01:23:14.495Z,37.65
2023-10-18T01:25:41.852Z,38.72
2023-10-18T01:28:08.758Z,36.25
2023-10-18T01:30:35.874Z,39.45
2023-10-18T01:33:03.034Z,38.70
2023-10-18T01:35:29.922Z,46.30
2023-10-18T01:37:58.550Z,43.22
2023-10-18T01:40:31.083Z,42.85
2023-10-18T01:42:58.064Z,39.05
2023-10-18T01:45:30.205Z,44.63
2023-10-18T01:47:59.271Z,44.78
2023-10-18T01:50:27.370Z,46.70
2023-10-18T01:52:54.294Z,48.13
2023-10-18T01:55:21.237Z,40.97
2023-10-18T01:57:49.631Z,43.70
2023-10-18T02:00:19.968Z,41.72
2023-10-18T02:02:50.207Z,44.30
2023-10-18T02:05:17.878Z,40.17
2023-10-18T02:07:48.758Z,40.08
2023-10-18T02:10:24.878Z,41.88
2023-10-18T02:12:51.955Z,44.25
2023-10-18T02:15:19.054Z,43.28
2023-10-18T02:17:52.730Z,38.85
2023-10-18T02:20:29.109Z,38.60
2023-10-18T02:23:00.909Z,44.25
2023-10-18T02:25:44.319Z,41.10
2023-10-18T02:28:33.571Z,44.88
2023-10-18T02:31:14.759Z,39.30
2023-10-18T02:33:43.889Z,49.42
2023-10-18T02:36:21.967Z,47.13
2023-10-18T02:38:53.969Z,45.63
2023-10-18T02:41:28.281Z,42.25
2023-10-18T02:43:56.661Z,45.50
2023-10-18T02:46:25.486Z,45.55
2023-10-18T02:48:56.613Z,41.92
2023-10-18T02:51:26.030Z,40.67
2023-10-18T02:53:54.604Z,44.30
2023-10-18T02:56:34.446Z,42.70
2023-10-18T02:59:08.120Z,50.35
2023-10-18T03:01:37.867Z,51.08
2023-10-18T03:04:08.834Z,49.60
2023-10-18T03:06:36.243Z,48.10
2023-10-18T03:09:04.603Z,51.70
2023-10-18T03:11:34.002Z,50.40
2023-10-18T03:14:02.633Z,48.80
2023-10-18T03:16:35.541Z,50.63
2023-10-18T03:19:11.132Z,56.35
2023-10-18T03:21:38.922Z,53.85
2023-10-18T03:24:06.249Z,52.28
2023-10-18T03:26:36.846Z,46.47
2023-10-18T03:29:06.867Z,50.15
2023-10-18T03:31:37.399Z,47.80
2023-10-18T03:34:04.852Z,53.10
2023-10-18T03:36:33.569Z,50.70
2023-10-18T03:39:13.418Z,49.30
2023-10-18T03:41:43.452Z,50.20
2023-10-18T03:44:10.810Z,52.92
2023-10-18T03:46:50.603Z,51.47
2023-10-18T03:49:31.312Z,49.72
2023-10-18T03:52:03.618Z,54.22
2023-10-18T03:54:44.578Z,52.03
2023-10-18T03:57:17.392Z,50.92
2023-10-18T03:59:48.162Z,54.20
2023-10-18T04:02:24.361Z,49.58
2023-10-18T04:04:51.565Z,54.03
2023-10-18T04:07:18.849Z,56.88
2023-10-18T04:10:01.805Z,53.38
2023-10-18T04:12:28.878Z,50.92
2023-10-18T04:15:02.654Z,53.97
2023-10-18T04:17:36.326Z,52.47
2023-10-18T04:20:24.094Z,50.85
2023-10-18T04:22:54.020Z,53.20
2023-10-18T04:25:37.633Z,54.03
2023-10-18T04:28:06.065Z,48.60
2023-10-18T04:30:33.282Z,50.60
2023-10-18T04:33:12.929Z,48.05
2023-10-18T04:35:53.317Z,49.17
2023-10-18T04:38:37.903Z,59.05
2023-10-18T04:41:09.688Z,58.03
2023-10-18T04:43:37.963Z,52.70
2023-10-18T04:46:14.632Z,56.78
2023-10-18T04:48:50.868Z,55.20
2023-10-18T04:51:35.654Z,56.78
2023-10-18T04:54:04.647Z,54.60
2023-10-18T04:56:43.666Z,54.13
2023-10-18T04:59:19.553Z,53.70
2023-10-18T05:01:57.320Z,52.75
2023-10-18T05:04:30.125Z,52.38
2023-10-18T05:07:21.658Z,51.08
2023-10-18T05:09:56.589Z,48.20
2023-10-18T05:12:26.454Z,50.20
2023-10-18T05:15:18.218Z,54.45
2023-10-18T05:17:45.319Z,50.25
2023-10-18T05:20:18.961Z,50.65
2023-10-18T05:22:51.370Z,48.97
2023-10-18T05:25:21.384Z,50.53
2023-10-18T05:28:09.750Z,47.47
2023-10-18T05:30:57.521Z,44.15
2023-10-18T05:33:42.670Z,48.85
2023-10-18T05:36:22.963Z,48.58
2023-10-18T05:38:50.529Z,46.30
2023-10-18T05:41:28.302Z,43.97
2023-10-18T05:44:02.203Z,49.55
2023-10-18T05:46:32.893Z,50.17
2023-10-18T05:49:02.464Z,55.05
2023-10-18T05:51:39.553Z,52.22
2023-10-18T05:54:07.536Z,55.88
2023-10-18T05:56:35.006Z,51.28
2023-10-18T05:59:22.702Z,51.25
2023-10-18T06:01:51.581Z,51.95
2023-10-18T06:04:37.208Z,49.30
2023-10-18T06:07:11.075Z,48.58
2023-10-18T06:09:48.282Z,49.33
2023-10-18T06:12:16.765Z,50.40
2023-10-18T06:14:46.822Z,48.15
2023-10-18T06:17:13.899Z,48.95
2023-10-18T06:19:42.547Z,47.85
2023-10-18T06:22:16.602Z,49.17
2023-10-18T06:24:46.666Z,47.70
2023-10-18T06:27:17.279Z,48.42
2023-10-18T06:29:50.729Z,48.95
2023-10-18T06:32:17.682Z,51.95
2023-10-18T06:34:47.270Z,54.33
2023-10-18T06:37:33.151Z,55.17
2023-10-18T06:40:00.386Z,49.35
2023-10-18T06:42:28.425Z,52.60
2023-10-18T06:44:57.779Z,50.83
2023-10-18T06:47:32.456Z,59.97
2023-10-18T06:50:15.133Z,52.22
2023-10-18T06:52:46.439Z,76.20
2023-10-18T06:55:19.468Z,67.05
2023-10-18T06:57:51.077Z,60.83
2023-10-18T07:02:45.881Z,59.25
2023-10-18T07:05:13.214Z,61.30
2023-10-18T07:07:40.233Z,77.13
2023-10-18T07:10:21.126Z,84.25
2023-10-18T07:12:53.290Z,133.05
2023-10-18T07:15:24.251Z,111.90
2023-10-18T07:17:53.128Z,74.88
2023-10-18T07:20:22.181Z,67.32
2023-10-18T07:22:56.002Z,78.57
2023-10-18T07:27:56.800Z,84.63
2023-10-18T07:30:40.026Z,114.95
2023-10-18T07:33:13.002Z,230.50
2023-10-18T07:35:45.368Z,83.07
2023-10-18T07:38:12.490Z,68.13
2023-10-18T07:40:42.411Z,63.65
2023-10-18T07:43:20.360Z,62.95
2023-10-18T07:45:56.982Z,68.63
2023-10-18T07:48:25.002Z,75.10
2023-10-18T07:50:51.990Z,72.43
2023-10-18T07:53:22.103Z,76.70
2023-10-18T07:55:54.498Z,78.18
2023-10-18T07:58:25.354Z,101.18
2023-10-18T08:01:02.406Z,91.97
2023-10-18T08:03:32.644Z,88.53
2023-10-18T08:06:00.886Z,81.35
2023-10-18T08:08:27.830Z,73.22
2023-10-18T08:10:55.952Z,77.75
2023-10-18T08:13:32.443Z,78.30
2023-10-18T08:16:02.681Z,71.97
2023-10-18T08:18:44.778Z,70.70
2023-10-18T08:21:27.308Z,63.28
2023-10-18T08:23:58.460Z,66.82
2023-10-18T08:26:28.674Z,65.00
2023-10-18T08:28:55.929Z,57.85
2023-10-18T08:31:36.411Z,53.03
2023-10-18T08:34:07.944Z,53.00
2023-10-18T08:36:35.086Z,54.70
2023-10-18T08:39:03.593Z,51.70
2023-10-18T08:41:35.374Z,52.00
2023-10-18T08:47:04.974Z,41.88
2023-10-18T08:49:34.602Z,51.20
2023-10-18T08:52:11.579Z,47.80
2023-10-18T08:54:42.261Z,44.20
2023-10-18T08:57:11.375Z,42.92
2023-10-18T08:59:47.425Z,40.35
2023-10-18T09:02:19.517Z,45.95
2023-10-18T09:04:56.339Z,45.80
2023-10-18T09:07:23.833Z,39.53
2023-10-18T09:09:57.404Z,38.80
2023-10-18T09:12:44.452Z,42.63
2023-10-18T09:15:33.348Z,40.60
2023-10-18T09:18:11.483Z,39.78
2023-10-18T09:20:38.978Z,36.78
2023-10-18T09:23:06.529Z,35.90
2023-10-18T09:26:19.988Z,40.60
2023-10-18T09:28:48.048Z,37.42
2023-10-18T09:31:23.342Z,36.25
2023-10-18T09:33:59.842Z,40.55
2023-10-18T09:36:28.532Z,42.15
2023-10-18T09:38:59.127Z,43.47
2023-10-18T09:41:32.369Z,40.25
2023-10-18T09:44:02.482Z,40.08
2023-10-18T09:46:30.055Z,42.70
2023-10-18T09:48:59.378Z,38.38
2023-10-18T09:51:27.805Z,44.53
2023-10-18T09:53:56.085Z,47.75
2023-10-18T09:56:36.051Z,37.17
2023-10-18T09:59:07.028Z,42.67
2023-10-18T10:01:44.164Z,37.30
2023-10-18T10:04:15.513Z,43.28
2023-10-18T10:06:46.770Z,56.15
2023-10-18T10:09:18.158Z,40.55
2023-10-18T10:11:49.258Z,37.50
2023-10-18T10:14:18.306Z,41.85
2023-10-18T10:17:06.877Z,35.72
2023-10-18T10:19:38.840Z,37.22
2023-10-18T10:24:43.960Z,37.78
2023-10-18T10:27:33.713Z,33.97
2023-10-18T10:30:25.415Z,39.03
2023-10-18T10:32:57.021Z,34.70
2023-10-18T10:35:28.781Z,39.75
2023-10-18T10:40:50.520Z,34.97
2023-10-18T10:43:21.732Z,38.72
2023-10-18T10:45:52.211Z,34.35
2023-10-18T10:48:19.327Z,32.92
2023-10-18T10:50:52.580Z,30.02
2023-10-18T10:53:34.406Z,35.05
2023-10-18T10:56:28.076Z,39.30
2023-10-18T10:59:19.740Z,37.22
2023-10-18T11:01:55.896Z,37.33
2023-10-18T11:04:47.560Z,35.75
2023-10-18T11:07:15.130Z,37.47
2023-10-18T11:09:44.295Z,32.22
2023-10-18T11:12:13.333Z,36.70
2023-10-18T11:14:43.280Z,33.75
2023-10-18T11:17:14.602Z,34.72
2023-10-18T11:20:21.437Z,64.63
2023-10-18T11:22:49.256Z,30.13
2023-10-18T11:25:21.151Z,29.70
2023-10-18T11:27:48.435Z,28.83
2023-10-18T11:30:17.245Z,29.33
2023-10-18T11:32:45.883Z,29.50
2023-10-18T11:35:19.579Z,28.60
2023-10-18T11:37:48.925Z,27.05
2023-10-18T11:40:17.534Z,25.27
2023-10-18T11:43:06.174Z,27.38
2023-10-18T11:45:33.948Z,24.65
2023-10-18T11:48:03.901Z,25.10
2023-10-18T11:50:46.502Z,27.10
2023-10-18T11:53:15.579Z,26.33
2023-10-18T11:55:57.211Z,25.08
2023-10-18T11:58:25.311Z,23.30
2023-10-18T12:00:57.330Z,21.30
2023-10-18T12:03:29.378Z,24.50
2023-10-18T12:06:00.647Z,21.00
2023-10-18T12:08:34.798Z,24.05
2023-10-18T12:11:11.047Z,23.48
2023-10-18T12:13:38.706Z,22.30
2023-10-18T12:16:09.953Z,19.00
2023-10-18T12:18:37.005Z,22.25
2023-10-18T12:21:06.714Z,26.25
2023-10-18T12:23:37.072Z,23.05
2023-10-18T12:26:12.870Z,37.08
2023-10-18T12:28:42.778Z,18.73
2023-10-18T12:31:17.982Z,19.00
2023-10-18T12:33:50.559Z,23.33
2023-10-18T12:36:24.258Z,31.50
2023-10-18T12:38:51.510Z,20.75
2023-10-18T12:41:28.906Z,26.38
2023-10-18T12:43:55.926Z,52.85
2023-10-18T12:46:23.795Z,25.23
2023-10-18T12:48:53.590Z,22.92
2023-10-18T12:51:21.344Z,22.67
2023-10-18T12:53:49.320Z,25.63
2023-10-18T12:56:19.703Z,21.20
2023-10-18T12:58:49.379Z,20.77
2023-10-18T13:01:17.276Z,21.50
2023-10-18T13:03:57.954Z,24.95
2023-10-18T13:06:31.904Z,33.70
2023-10-18T13:09:14.761Z,26.67
2023-10-18T13:12:09.222Z,38.67
2023-10-18T13:14:36.614Z,22.58
2023-10-18T13:17:06.903Z,26.52
2023-10-18T13:19:34.446Z,21.60
2023-10-18T13:22:01.679Z,20.85
2023-10-18T13:24:32.663Z,30.58
2023-10-18T13:27:04.221Z,22.33
2023-10-18T13:29:32.207Z,20.55
2023-10-18T13:31:59.968Z,23.15
2023-10-18T13:34:34.038Z,19.13
2023-10-18T13:37:05.613Z,20.40
2023-10-18T13:39:33.175Z,21.50
2023-10-18T13:42:02.328Z,52.28
2023-10-18T13:44:30.889Z,20.70
2023-10-18T13:47:12.021Z,21.00
2023-10-18T13:49:41.389Z,25.45
2023-10-18T13:52:09.292Z,22.63
2023-10-18T13:54:36.413Z,24.10
2023-10-18T13:57:03.356Z,24.83
2023-10-18T13:59:31.182Z,25.63
2023-10-18T14:01:58.530Z,26.33
2023-10-18T14:04:31.240Z,27.65
2023-10-18T14:07:01.390Z,32.13
2023-10-18T14:09:34.702Z,26.85
2023-10-18T14:12:03.059Z,26.67
2023-10-18T14:14:33.012Z,28.02
2023-10-18T14:17:01.183Z,29.13
2023-10-18T14:19:31.482Z,29.00
2023-10-18T14:21:58.640Z,30.30
2023-10-18T14:24:30.153Z,28.48
2023-10-18T14:26:58.221Z,27.23
2023-10-18T14:29:26.980Z,27.77
2023-10-18T14:31:54.090Z,28.15
2023-10-18T14:34:23.748Z,29.67
2023-10-18T14:36:51.869Z,36.25
2023-10-18T14:39:35.651Z,31.15
2023-10-18T14:42:08.692Z,29.75
2023-10-18T14:44:35.943Z,31.20
2023-10-18T14:47:03.452Z,34.78
2023-10-18T14:49:33.263Z,29.02
2023-10-18T14:52:00.852Z,31.17
2023-10-18T14:54:27.863Z,42.90
2023-10-18T14:56:54.682Z,34.78
2023-10-18T14:59:21.747Z,36.92
2023-10-18T15:01:48.743Z,47.65
2023-10-18T15:04:15.613Z,35.70
2023-10-18T15:06:42.504Z,34.50
2023-10-18T15:09:17.020Z,36.40
2023-10-18T15:11:43.901Z,47.88
2023-10-18T15:14:13.224Z,38.42
2023-10-18T15:16:40.709Z,68.03
2023-10-18T15:19:07.778Z,56.45
2023-10-18T15:21:35.362Z,43.63
2023-10-18T15:24:02.336Z,38.50
2023-10-18T15:26:31.167Z,37.53
2023-10-18T15:28:58.316Z,53.78
2023-10-18T15:31:25.394Z,40.67
2023-10-18T15:33:53.361Z,39.15
2023-10-18T15:36:22.928Z,43.35
2023-10-18T15:38:51.691Z,36.08
2023-10-18T15:41:22.410Z,44.92
2023-10-18T15:43:52.888Z,39.67
2023-10-18T15:46:28.892Z,38.95
2023-10-18T15:49:00.717Z,40.38
2023-10-18T15:53:58.150Z,37.80
2023-10-18T15:56:27.314Z,53.60
2023-10-18T15:58:55.985Z,51.47
2023-10-18T16:01:23.583Z,38.97
2023-10-18T16:03:50.963Z,41.25
2023-10-18T16:06:19.538Z,36.92
2023-10-18T16:08:48.153Z,60.85
2023-10-18T16:11:15.942Z,43.53
2023-10-18T16:13:42.903Z,41.67
2023-10-18T16:16:13.258Z,41.15
2023-10-18T16:18:42.928Z,35.50
2023-10-18T16:21:11.911Z,39.35
2023-10-18T16:23:41.582Z,40.42
2023-10-18T16:26:19.844Z,77.55
2023-10-18T16:28:50.566Z,44.72
2023-10-18T16:31:18.795Z,73.75
2023-10-18T16:33:52.515Z,70.43
2023-10-18T16:40:17.626Z,41.83
2023-10-18T16:42:59.912Z,40.53
2023-10-18T16:45:26.774Z,49.17
2023-10-18T16:47:58.589Z,38.22
2023-10-18T16:50:28.395Z,52.20
2023-10-18T16:52:56.109Z,49.78
2023-10-18T16:55:22.945Z,48.72
2023-10-18T16:57:50.110Z,46.67
2023-10-18T17:00:17.239Z,44.58
2023-10-18T17:02:45.509Z,39.45
2023-10-18T17:05:13.880Z,54.97
2023-10-18T17:07:45.130Z,56.45
2023-10-18T17:10:18.427Z,48.58
2023-10-18T17:12:49.484Z,47.42
2023-10-18T17:15:20.063Z,45.28
2023-10-18T17:17:47.116Z,45.30
2023-10-18T17:20:17.115Z,45.78
2023-10-18T17:22:45.149Z,44.15
2023-10-18T17:25:18.116Z,45.20
2023-10-18T17:27:46.916Z,41.30
2023-10-18T17:30:14.916Z,48.95
2023-10-18T17:32:43.086Z,48.22
2023-10-18T17:35:14.505Z,44.20
2023-10-18T17:37:45.446Z,48.03
2023-10-18T17:40:18.244Z,42.28
2023-10-18T17:42:46.710Z,49.13
2023-10-18T17:45:15.402Z,49.78
2023-10-18T17:47:43.814Z,50.80
2023-10-18T17:50:12.501Z,48.72
2023-10-18T17:52:45.534Z,47.30
2023-10-18T17:55:15.908Z,47.45
2023-10-18T17:57:43.523Z,45.35
2023-10-18T18:00:13.269Z,51.08
2023-10-18T18:02:47.061Z,50.22
2023-10-18T18:05:14.476Z,52.22
2023-10-18T18:07:41.420Z,49.22
2023-10-18T18:10:10.627Z,49.50
2023-10-18T18:12:37.652Z,48.60
2023-10-18T18:15:06.887Z,61.45
2023-10-18T18:17:33.785Z,53.97
2023-10-18T18:20:08.339Z,50.38
2023-10-18T18:22:39.936Z,47.15
2023-10-18T18:25:07.282Z,47.17
2023-10-18T18:27:34.148Z,42.22
2023-10-18T18:30:07.676Z,44.70
2023-10-18T18:32:35.412Z,46.55
2023-10-18T18:35:02.309Z,46.58
2023-10-18T18:37:29.440Z,45.10
2023-10-18T18:40:12.893Z,54.42
2023-10-18T18:42:40.163Z,46.78
2023-10-18T18:45:12.433Z,44.10
2023-10-18T18:47:39.927Z,46.63
2023-10-18T18:50:11.719Z,52.85
2023-10-18T18:55:09.938Z,51.35
2023-10-18T18:58:00.780Z,55.13
2023-10-18T19:00:27.643Z,55.65
2023-10-18T19:02:57.458Z,54.42
2023-10-18T19:05:25.688Z,49.20
2023-10-18T19:07:55.906Z,51.70
2023-10-18T19:10:23.078Z,49.35
2023-10-18T19:12:52.256Z,46.08
2023-10-18T19:15:22.201Z,51.88
2023-10-18T19:17:51.214Z,61.30
2023-10-18T19:20:19.540Z,53.28
2023-10-18T19:22:48.653Z,56.22
2023-10-18T19:25:19.785Z,56.92
2023-10-18T19:27:50.197Z,59.88
2023-10-18T19:30:21.703Z,53.58
2023-10-18T19:35:16.304Z,54.50
2023-10-18T19:37:46.294Z,56.75
2023-10-18T19:40:13.908Z,58.83
2023-10-18T19:42:41.723Z,56.70
2023-10-18T19:45:14.322Z,61.95
2023-10-18T19:47:41.967Z,57.78
2023-10-18T19:50:10.720Z,61.45
2023-10-18T19:52:38.963Z,63.90
2023-10-18T19:55:07.821Z,59.10
2023-10-18T19:57:34.957Z,60.50
2023-10-18T20:00:02.374Z,59.20
2023-10-18T20:02:29.579Z,64.40
2023-10-18T20:04:57.228Z,64.85
2023-10-18T20:07:25.120Z,54.28
2023-10-18T20:09:54.288Z,56.97
2023-10-18T20:12:22.845Z,58.22
2023-10-18T20:14:49.757Z,62.13
2023-10-18T20:17:17.223Z,61.10
2023-10-18T20:19:44.169Z,58.15
2023-10-18T20:22:12.174Z,56.03
2023-10-18T20:24:39.018Z,51.05
2023-10-18T20:27:06.626Z,57.83
2023-10-18T20:29:33.931Z,61.22
2023-10-18T20:32:04.371Z,55.95
2023-10-18T20:34:32.815Z,57.80
2023-10-18T20:36:59.813Z,57.97
2023-10-18T20:39:30.595Z,54.63
2023-10-18T20:42:05.486Z,56.70
2023-10-18T20:44:32.580Z,58.20
2023-10-18T20:47:04.061Z,62.30
2023-10-18T20:49:33.713Z,59.10
2023-10-18T20:52:01.487Z,58.05
2023-10-18T20:54:34.231Z,58.92
2023-10-18T20:57:12.560Z,59.40
2023-10-18T20:59:46.354Z,58.75
2023-10-18T21:02:16.929Z,56.30
2023-10-18T21:04:46.202Z,60.90
2023-10-18T21:07:16.977Z,57.78
2023-10-18T21:09:44.550Z,63.40
2023-10-18T21:12:15.046Z,59.25
2023-10-18T21:14:41.844Z,57.42
2023-10-18T21:17:08.708Z,56.25
2023-10-18T21:19:35.644Z,60.33
2023-10-18T21:22:02.475Z,55.80
2023-10-18T21:24:29.440Z,59.25
2023-10-18T21:26:56.405Z,64.88
2023-10-18T21:29:23.310Z,62.10
2023-10-18T21:31:50.339Z,63.65
2023-10-18T21:34:17.252Z,64.30
2023-10-18T21:36:44.091Z,63.38
2023-10-18T21:39:11.301Z,63.13
2023-10-18T21:41:38.558Z,54.95
2023-10-18T21:44:05.672Z,58.35
2023-10-18T21:46:35.565Z,60.50
2023-10-18T21:49:02.651Z,59.50
2023-10-18T21:51:30.072Z,54.80
2023-10-18T21:53:58.056Z,58.97
2023-10-18T21:56:25.027Z,61.75
2023-10-18T21:58:52.566Z,72.03
2023-10-18T22:01:30.971Z,71.65
2023-10-18T22:04:00.971Z,61.17
2023-10-18T22:06:29.489Z,63.22
2023-10-18T22:09:06.537Z,62.35
2023-10-18T22:11:36.374Z,59.53
2023-10-18T22:14:19.018Z,62.40
2023-10-18T22:16:57.407Z,65.30
2023-10-18T22:19:34.255Z,64.07
2023-10-18T22:22:13.125Z,69.45
2023-10-18T22:24:40.622Z,59.53
2023-10-18T22:27:07.470Z,55.78
2023-10-18T22:29:37.106Z,54.95
2023-10-18T22:34:34.541Z,51.97
2023-10-18T22:37:01.470Z,53.25
2023-10-18T22:39:34.852Z,52.17
2023-10-18T22:42:09.605Z,52.85
2023-10-18T22:44:39.873Z,51.75
2023-10-18T22:47:08.040Z,51.25
2023-10-18T22:49:37.857Z,58.80
2023-10-18T22:52:24.219Z,46.60
2023-10-18T22:54:52.315Z,52.47
2023-10-18T22:57:19.526Z,48.67
2023-10-18T22:59:48.210Z,51.33
2023-10-18T23:02:23.705Z,45.30
2023-10-18T23:04:57.272Z,54.92
2023-10-18T23:07:29.216Z,47.08
2023-10-18T23:09:56.323Z,52.97
2023-10-18T23:12:25.002Z,51.17
2023-10-18T23:15:16.094Z,49.20
2023-10-18T23:17:43.359Z,48.22
2023-10-18T23:20:19.928Z,45.17
2023-10-18T23:22:48.818Z,54.90
2023-10-18T23:25:34.383Z,52.15
2023-10-18T23:28:19.416Z,57.90
2023-10-18T23:31:06.686Z,53.20
2023-10-18T23:33:35.376Z,55.22
2023-10-18T23:36:14.027Z,51.97
2023-10-18T23:38:41.651Z,49.55
2023-10-18T23:41:08.589Z,50.33
2023-10-18T23:43:47.523Z,45.97
2023-10-18T23:46:46.749Z,42.63
2023-10-18T23:49:25.801Z,51.67
2023-10-18T23:51:55.128Z,53.42
2023-10-18T23:54:22.375Z,54.85
2023-10-18T23:56:51.478Z,45.55
2023-10-18T23:59:30.628Z,53.67
